Time;durP1;ratioP1;P1;durP2;ratioP2;P2;SDS_P1;SDS_P2;PMS_P1;PMS_P2;Temp;Humidity;BMP_temperature;BMP_pressure;BME280_temperature;BME280_humidity;BME280_pressure;Samples;Min_cycle;Max_cycle;Signal;HPM_P1;HPM_P2
2023/03/11 06:01:42;;;;;;;;;3.00;3.00;;;;;-147.14;100.00;58812.66;5311157;23;46533;-60
2023/03/11 06:04:07;;;;;;;;;4.00;3.00;;;;;-147.14;100.00;58812.66;4956860;28;46309;-62
2023/03/11 06:06:33;;;;;;;;;3.00;3.00;;;;;-147.14;100.00;58812.66;4949474;28;45370;-61
2023/03/11 06:08:58;;;;;;;;;2.67;2.67;;;;;-147.14;100.00;58812.66;4948679;28;52243;-61
2023/03/11 06:11:24;;;;;;;;;2.00;2.00;;;;;-147.14;100.00;58812.66;4950649;28;45464;-62
2023/03/11 06:13:54;;;;;;;;;6.00;5.33;;;;;-147.14;100.00;58812.66;4960946;28;45417;-62
2023/03/11 06:16:20;;;;;;;;;7.67;4.67;;;;;-147.14;100.00;58812.66;4953892;28;45501;-62
2023/03/11 06:18:46;;;;;;;;;7.33;5.67;;;;;-147.14;100.00;58812.66;4953760;28;45538;-61
2023/03/11 06:21:22;;;;;;;;;6.00;3.33;;;;;-147.14;100.00;58812.66;4954398;28;69757;-61
2023/03/11 06:23:48;;;;;;;;;8.00;6.67;;;;;-147.14;100.00;58812.66;4950024;28;46655;-61
2023/03/11 06:26:19;;;;;;;;;6.33;6.33;;;;;-147.14;100.00;58812.66;4952536;28;46071;-62
2023/03/11 06:28:45;;;;;;;;;7.00;7.00;;;;;-147.14;100.00;58812.66;4951688;28;45465;-61
2023/03/11 06:31:14;;;;;;;;;6.00;6.00;;;;;-147.14;100.00;58812.66;4953745;28;45401;-61
2023/03/11 06:33:40;;;;;;;;;7.00;6.67;;;;;-147.14;100.00;58812.66;4955978;28;45759;-61
2023/03/11 06:36:06;;;;;;;;;5.67;4.00;;;;;-147.14;100.00;58812.66;4957758;28;68665;-62
2023/03/11 06:38:32;;;;;;;;;7.00;7.00;;;;;-147.14;100.00;58812.66;4953861;28;45386;-62
2023/03/11 06:41:03;;;;;;;;;6.33;4.00;;;;;-147.14;100.00;58812.66;4952007;28;45797;-62
2023/03/11 06:43:29;;;;;;;;;5.33;5.33;;;;;-147.14;100.00;58812.66;4951116;28;46595;-62
2023/03/11 06:45:54;;;;;;;;;7.00;5.33;;;;;-147.14;100.00;58812.66;4942352;28;45378;-62
2023/03/11 06:48:19;;;;;;;;;8.00;4.67;;;;;-147.14;100.00;58812.66;4958900;28;49920;-62
2023/03/11 06:50:53;;;;;;;;;8.00;7.00;;;;;-147.14;100.00;58812.66;4952229;28;68530;-62
2023/03/11 06:53:18;;;;;;;;;7.00;6.33;;;;;-147.14;100.00;58812.66;4946177;28;46961;-61
2023/03/11 06:55:44;;;;;;;;;6.00;4.00;;;;;-147.14;100.00;58812.66;4950219;28;69934;-61
2023/03/11 06:58:09;;;;;;;;;7.67;5.67;;;;;-147.14;100.00;58812.66;4958692;28;67906;-62
2023/03/11 07:00:35;;;;;;;;;5.67;5.67;;;;;-147.14;100.00;58812.66;4953270;28;69643;-62
2023/03/11 07:03:00;;;;;;;;;4.67;4.00;;;;;-147.14;100.00;58812.66;4947595;28;61999;-62
2023/03/11 07:05:26;;;;;;;;;7.67;5.00;;;;;-147.14;100.00;58812.66;4945352;28;62920;-62
2023/03/11 07:07:54;;;;;;;;;8.00;7.33;;;;;-147.14;100.00;58812.66;4943528;28;62884;-62
2023/03/11 07:10:20;;;;;;;;;7.33;4.67;;;;;-147.14;100.00;58812.66;4952775;28;66520;-62
2023/03/11 07:12:45;;;;;;;;;10.33;6.67;;;;;-147.14;100.00;58812.66;4944860;28;45941;-63
2023/03/11 07:15:11;;;;;;;;;7.00;5.00;;;;;-147.14;100.00;58812.66;4946834;28;55913;-63
2023/03/11 07:17:36;;;;;;;;;8.33;6.33;;;;;-147.14;100.00;58812.66;4956931;28;45498;-62
2023/03/11 07:20:02;;;;;;;;;9.00;7.33;;;;;-147.14;100.00;58812.66;4956405;28;45385;-62
2023/03/11 07:22:27;;;;;;;;;5.00;5.00;;;;;-147.14;100.00;58812.66;4956364;28;45351;-62
2023/03/11 07:24:52;;;;;;;;;4.33;4.00;;;;;-147.14;100.00;58812.66;4946947;28;66866;-62
2023/03/11 07:27:18;;;;;;;;;8.67;7.00;;;;;-147.14;100.00;58812.66;4947385;28;64588;-62
2023/03/11 07:29:43;;;;;;;;;7.33;7.00;;;;;-147.14;100.00;58812.66;4958522;28;45524;-62
2023/03/11 07:32:09;;;;;;;;;7.00;5.00;;;;;-147.14;100.00;58812.66;4948333;28;45688;-62
2023/03/11 07:34:34;;;;;;;;;7.67;5.00;;;;;-147.14;100.00;58812.66;4947749;28;45516;-62
2023/03/11 07:36:59;;;;;;;;;9.67;4.67;;;;;-147.14;100.00;58812.66;4953443;28;45485;-62
2023/03/11 07:39:25;;;;;;;;;5.00;4.67;;;;;-147.14;100.00;58812.66;4951890;28;45751;-62
2023/03/11 07:41:50;;;;;;;;;9.67;8.33;;;;;-147.14;100.00;58812.66;4947813;28;62047;-62
2023/03/11 07:44:16;;;;;;;;;9.67;9.00;;;;;-147.14;100.00;58812.66;4958482;28;68335;-62
2023/03/11 07:46:42;;;;;;;;;10.00;6.67;;;;;-147.14;100.00;58812.66;4942429;28;45851;-62
2023/03/11 07:49:07;;;;;;;;;8.67;8.67;;;;;-147.14;100.00;58812.66;4954747;28;45742;-62
2023/03/11 07:51:34;;;;;;;;;8.00;8.00;;;;;-147.14;100.00;58812.66;4956311;28;46273;-62
2023/03/11 07:54:00;;;;;;;;;9.00;6.67;;;;;-147.14;100.00;58812.66;4949488;28;45445;-62
2023/03/11 07:56:29;;;;;;;;;8.67;6.00;;;;;-147.14;100.00;58812.66;4954592;28;45584;-62
2023/03/11 07:58:56;;;;;;;;;9.67;9.00;;;;;-147.14;100.00;58812.66;4945494;28;45208;-62
2023/03/11 08:01:23;;;;;;;;;9.67;7.67;;;;;-147.14;100.00;58812.66;4939541;28;48432;-62
2023/03/11 08:03:50;;;;;;;;;8.67;6.33;;;;;-147.14;100.00;58812.66;4946122;28;45399;-63
2023/03/11 08:06:17;;;;;;;;;6.33;6.33;;;;;-147.14;100.00;58812.66;4944466;28;45412;-62
2023/03/11 08:08:42;;;;;;;;;15.00;9.67;;;;;-147.14;100.00;58812.66;4954379;28;45425;-62
2023/03/11 08:11:08;;;;;;;;;8.33;8.00;;;;;-147.14;100.00;58812.66;4942899;28;51895;-62
2023/03/11 08:13:34;;;;;;;;;11.67;8.67;;;;;-147.14;100.00;58812.66;4951377;28;45787;-62
2023/03/11 08:16:02;;;;;;;;;7.33;7.33;;;;;-147.14;100.00;58812.66;4958001;28;45439;-62
2023/03/11 08:18:27;;;;;;;;;8.33;5.00;;;;;-147.14;100.00;58812.66;4946102;28;45496;-62
2023/03/11 08:20:54;;;;;;;;;8.00;5.00;;;;;-147.14;100.00;58812.66;4958354;28;65129;-62
2023/03/11 08:23:19;;;;;;;;;6.00;6.00;;;;;-147.14;100.00;58812.66;4961448;28;45390;-62
2023/03/11 08:25:45;;;;;;;;;10.00;6.33;;;;;-147.14;100.00;58812.66;4955509;28;58697;-62
2023/03/11 08:28:11;;;;;;;;;10.00;7.33;;;;;-147.14;100.00;58812.66;4941381;28;45616;-63
2023/03/11 08:30:36;;;;;;;;;10.00;6.00;;;;;-147.14;100.00;58812.66;4943438;28;68959;-63
2023/03/11 08:33:02;;;;;;;;;7.33;7.33;;;;;-147.14;100.00;58812.66;4940922;28;71226;-63
2023/03/11 08:35:27;;;;;;;;;6.67;4.67;;;;;-147.14;100.00;58812.66;4952822;28;45509;-63
2023/03/11 08:37:52;;;;;;;;;5.00;5.00;;;;;-147.14;100.00;58812.66;4953357;28;45385;-58
2023/03/11 08:40:18;;;;;;;;;5.00;5.00;;;;;-147.14;100.00;58812.66;4948127;28;73641;-59
2023/03/11 08:42:43;;;;;;;;;10.67;10.00;;;;;-147.14;100.00;58812.66;4958374;28;45446;-64
2023/03/11 08:45:09;;;;;;;;;9.33;7.00;;;;;-147.14;100.00;58812.66;4952751;28;45919;-64
2023/03/11 08:47:36;;;;;;;;;8.67;5.00;;;;;-147.14;100.00;58812.66;4970530;28;46852;-64
2023/03/11 08:50:03;;;;;;;;;5.67;5.67;;;;;-147.14;100.00;58812.66;4950983;28;46284;-64
2023/03/11 08:52:28;;;;;;;;;9.00;7.67;;;;;-147.14;100.00;58812.66;4945293;28;45709;-64
2023/03/11 08:54:53;;;;;;;;;9.33;8.00;;;;;-147.14;100.00;58812.66;4945370;28;45427;-64
2023/03/11 08:57:19;;;;;;;;;8.33;6.00;;;;;-147.14;100.00;58812.66;4925867;28;45646;-63
2023/03/11 08:59:44;;;;;;;;;6.33;6.33;;;;;-147.14;100.00;58812.66;4950176;28;61867;-59
2023/03/11 09:02:10;;;;;;;;;7.33;6.00;;;;;-147.14;100.00;58812.66;4955524;28;45610;-64
2023/03/11 09:04:35;;;;;;;;;11.00;6.00;;;;;-147.14;100.00;58812.66;4949723;28;45628;-64
2023/03/11 09:07:00;;;;;;;;;6.00;6.00;;;;;-147.14;100.00;58812.66;4963255;28;59550;-65
2023/03/11 09:09:26;;;;;;;;;6.00;6.00;;;;;-147.14;100.00;58812.66;4959876;28;73357;-64
2023/03/11 09:11:51;;;;;;;;;7.00;7.00;;;;;-147.14;100.00;58812.66;4964083;28;68173;-65
2023/03/11 09:14:17;;;;;;;;;9.67;7.67;;;;;-147.14;100.00;58812.66;4962689;28;55618;-62
2023/03/11 09:16:42;;;;;;;;;9.33;8.00;;;;;-147.14;100.00;58812.66;4973131;28;45351;-65
2023/03/11 09:19:07;;;;;;;;;8.67;7.00;;;;;-147.14;100.00;58812.66;4964934;28;45660;-64
2023/03/11 09:21:34;;;;;;;;;8.67;7.00;;;;;-147.14;100.00;58812.66;4957236;28;62329;-64
2023/03/11 09:24:00;;;;;;;;;10.00;7.67;;;;;-147.14;100.00;58812.66;4953550;28;45382;-65
2023/03/11 09:26:25;;;;;;;;;10.33;9.33;;;;;-147.14;100.00;58812.66;4946441;28;45252;-64
2023/03/11 09:28:51;;;;;;;;;8.00;7.00;;;;;-147.14;100.00;58812.66;4951753;28;46358;-64
2023/03/11 09:31:17;;;;;;;;;10.33;7.00;;;;;-147.14;100.00;58812.66;4956096;28;45429;-65
2023/03/11 09:33:42;;;;;;;;;9.33;8.33;;;;;-147.14;100.00;58812.66;4953795;28;45817;-64
2023/03/11 09:36:13;;;;;;;;;10.67;8.33;;;;;-147.14;100.00;58812.66;4957609;28;45491;-64
2023/03/11 09:38:39;;;;;;;;;10.67;9.00;;;;;-147.14;100.00;58812.66;4957535;28;45324;-64
2023/03/11 09:41:17;;;;;;;;;7.33;7.33;;;;;-147.14;100.00;58812.66;4957935;28;45647;-64
2023/03/11 09:44:11;;;;;;;;;8.00;8.00;;;;;-147.14;100.00;58812.66;4954124;28;45501;-65
2023/03/11 09:46:53;;;;;;;;;8.00;6.67;;;;;-147.14;100.00;58812.66;4945387;28;45337;-65
2023/03/11 09:49:52;;;;;;;;;8.00;8.00;;;;;-147.14;100.00;58812.66;4953586;28;45527;-60
2023/03/11 09:52:26;;;;;;;;;8.33;7.67;;;;;-147.14;100.00;58812.66;4948844;28;45870;-61
2023/03/11 09:54:53;;;;;;;;;7.00;7.00;;;;;-147.14;100.00;58812.66;4956028;28;45597;-60
2023/03/11 09:57:21;;;;;;;;;9.00;6.67;;;;;-147.14;100.00;58812.66;4950191;28;45509;-62
2023/03/11 09:59:47;;;;;;;;;8.33;7.33;;;;;-147.14;100.00;58812.66;4954622;28;46342;-62
2023/03/11 10:02:21;;;;;;;;;7.67;7.67;;;;;-147.14;100.00;58812.66;4953822;28;45448;-62
2023/03/11 10:05:06;;;;;;;;;11.00;7.00;;;;;-147.14;100.00;58812.66;4956499;28;45361;-62
2023/03/11 10:07:36;;;;;;;;;12.33;11.00;;;;;-147.14;100.00;58812.66;4955449;28;45425;-61
2023/03/11 10:10:01;;;;;;;;;8.33;7.67;;;;;-147.14;100.00;58812.66;4957272;28;45705;-62
2023/03/11 10:12:58;;;;;;;;;7.33;7.33;;;;;-147.14;100.00;58812.66;4955162;28;45350;-61
2023/03/11 10:15:26;;;;;;;;;10.67;9.00;;;;;-147.14;100.00;58812.66;4973977;28;45688;-61
2023/03/11 10:17:58;;;;;;;;;11.00;9.00;;;;;-147.14;100.00;58812.66;4958456;28;45452;-61
2023/03/11 10:20:36;;;;;;;;;9.33;7.67;;;;;-147.14;100.00;58812.66;4957166;28;46982;-63
2023/03/11 10:23:21;;;;;;;;;8.00;7.00;;;;;-147.14;100.00;58812.66;4964504;28;45451;-62
2023/03/11 10:26:04;;;;;;;;;11.00;9.00;;;;;-147.14;100.00;58812.66;4965249;28;45520;-62
2023/03/11 10:28:36;;;;;;;;;9.00;9.00;;;;;-147.14;100.00;58812.66;4975455;28;45573;-63
2023/03/11 10:31:09;;;;;;;;;7.33;7.33;;;;;-147.14;100.00;58812.66;4953172;28;46923;-62
2023/03/11 10:33:44;;;;;;;;;8.00;7.67;;;;;-147.14;100.00;58812.66;4955552;28;45481;-60
2023/03/11 10:36:22;;;;;;;;;7.33;6.67;;;;;-147.14;100.00;58812.66;4953795;28;45528;-60
2023/03/11 10:38:50;;;;;;;;;6.00;6.00;;;;;-147.14;100.00;58812.66;4951814;28;45607;-60
2023/03/11 10:41:36;;;;;;;;;7.67;6.33;;;;;-147.14;100.00;58812.66;4962114;28;45437;-60
2023/03/11 10:44:05;;;;;;;;;8.67;8.67;;;;;-147.14;100.00;58812.66;4959440;28;45480;-58
2023/03/11 10:46:31;;;;;;;;;6.00;4.67;;;;;-147.14;100.00;58812.66;4947806;28;45446;-59
2023/03/11 10:48:56;;;;;;;;;7.33;7.33;;;;;-147.14;100.00;58812.66;4961107;28;45464;-59
2023/03/11 10:51:35;;;;;;;;;6.33;6.00;;;;;-147.14;100.00;58812.66;4959390;28;48055;-59
2023/03/11 10:54:02;;;;;;;;;6.33;6.33;;;;;-147.14;100.00;58812.66;4950571;28;45599;-59
2023/03/11 10:56:38;;;;;;;;;7.33;7.33;;;;;-147.14;100.00;58812.66;4954013;28;45552;-59
2023/03/11 10:59:17;;;;;;;;;10.00;8.67;;;;;-147.14;100.00;58812.66;4955379;28;45459;-59
2023/03/11 11:02:02;;;;;;;;;8.00;8.00;;;;;-147.14;100.00;58812.66;4938100;28;47723;-59
2023/03/11 11:04:39;;;;;;;;;7.00;5.67;;;;;-147.14;100.00;58812.66;4952739;28;45476;-60
2023/03/11 11:07:21;;;;;;;;;8.33;7.33;;;;;-147.14;100.00;58812.66;4941165;28;45483;-59
2023/03/11 11:09:47;;;;;;;;;9.67;8.00;;;;;-147.14;100.00;58812.66;4948699;28;45534;-59
2023/03/11 11:12:16;;;;;;;;;10.00;8.00;;;;;-147.14;100.00;58812.66;4958581;28;45441;-58
2023/03/11 11:14:50;;;;;;;;;6.00;6.00;;;;;-147.14;100.00;58812.66;4960659;28;45571;-58
2023/03/11 11:17:29;;;;;;;;;8.00;7.00;;;;;-147.14;100.00;58812.66;4948803;28;45491;-59
2023/03/11 11:19:56;;;;;;;;;7.00;6.67;;;;;-147.14;100.00;58812.66;4934376;28;45462;-59
2023/03/11 11:22:23;;;;;;;;;9.67;9.67;;;;;-147.14;100.00;58812.66;4955677;28;47511;-58
2023/03/11 11:24:51;;;;;;;;;9.33;8.00;;;;;-147.14;100.00;58812.66;4951056;28;45580;-60
2023/03/11 11:27:20;;;;;;;;;6.00;6.00;;;;;-147.14;100.00;58812.66;4956985;28;45439;-59
2023/03/11 11:29:48;;;;;;;;;9.00;9.00;;;;;-147.14;100.00;58812.66;4959547;28;45389;-59
2023/03/11 11:32:26;;;;;;;;;9.33;8.00;;;;;-147.14;100.00;58812.66;4945397;28;46478;-59
2023/03/11 11:35:00;;;;;;;;;11.00;7.67;;;;;-147.14;100.00;58812.66;4948067;28;45456;-60
2023/03/11 11:37:30;;;;;;;;;6.00;3.00;;;;;-147.14;100.00;58812.66;4956952;28;45689;-60
2023/03/11 11:40:14;;;;;;;;;8.33;8.33;;;;;-147.14;100.00;58812.66;4956439;28;45492;-60
2023/03/11 11:42:59;;;;;;;;;14.67;13.33;;;;;-147.14;100.00;58812.66;4960062;28;45912;-60
2023/03/11 11:45:33;;;;;;;;;8.33;6.00;;;;;-147.14;100.00;58812.66;4938029;28;45584;-60
2023/03/11 11:48:04;;;;;;;;;6.67;6.67;;;;;-147.14;100.00;58812.66;4957185;28;45353;-59
2023/03/11 11:50:37;;;;;;;;;6.00;6.00;;;;;-147.14;100.00;58812.66;4955999;28;45506;-58
2023/03/11 11:53:08;;;;;;;;;10.00;7.00;;;;;-147.14;100.00;58812.66;4957337;28;46617;-58
2023/03/11 11:55:45;;;;;;;;;9.00;9.00;;;;;-147.14;100.00;58812.66;4948042;28;46126;-59
2023/03/11 11:58:13;;;;;;;;;6.00;6.00;;;;;-147.14;100.00;58812.66;4945752;28;45472;-59
2023/03/11 12:00:48;;;;;;;;;7.00;7.00;;;;;-147.14;100.00;58812.66;4949926;28;45461;-58
2023/03/11 12:03:22;;;;;;;;;9.33;7.00;;;;;-147.14;100.00;58812.66;4947905;28;45318;-60
2023/03/11 12:05:56;;;;;;;;;9.33;7.33;;;;;-147.14;100.00;58812.66;4941155;28;45404;-60
2023/03/11 12:08:53;;;;;;;;;11.33;10.00;;;;;-147.14;100.00;58812.66;4951442;28;45440;-60
2023/03/11 12:11:26;;;;;;;;;6.00;6.00;;;;;-147.14;100.00;58812.66;4950542;28;45992;-60
2023/03/11 12:14:05;;;;;;;;;8.33;8.00;;;;;-147.14;100.00;58812.66;4952828;28;46472;-58
2023/03/11 12:16:43;;;;;;;;;8.33;6.67;;;;;-147.14;100.00;58812.66;4953920;28;45344;-63
2023/03/11 12:19:35;;;;;;;;;6.00;6.00;;;;;-147.14;100.00;58812.66;4955319;28;45302;-62
2023/03/11 12:22:22;;;;;;;;;7.67;5.00;;;;;-147.14;100.00;58812.66;4951950;28;45548;-64
2023/03/11 12:24:50;;;;;;;;;6.00;6.00;;;;;-147.14;100.00;58812.66;4950587;28;46426;-63
2023/03/11 12:27:25;;;;;;;;;8.67;8.67;;;;;-147.14;100.00;58812.66;4957443;28;45387;-63
2023/03/11 12:30:00;;;;;;;;;9.33;8.00;;;;;-147.14;100.00;58812.66;4948953;28;45482;-63
2023/03/11 12:32:47;;;;;;;;;8.67;6.33;;;;;-147.14;100.00;58812.66;4950530;28;45431;-63
2023/03/11 12:35:23;;;;;;;;;7.67;6.33;;;;;-147.14;100.00;58812.66;4950631;28;46304;-63
2023/03/11 12:38:20;;;;;;;;;6.67;6.67;;;;;-147.14;100.00;58812.66;4934532;28;45406;-63
2023/03/11 12:40:48;;;;;;;;;6.67;6.67;;;;;-147.14;100.00;58812.66;4952603;28;45458;-63
2023/03/11 12:43:32;;;;;;;;;8.00;7.00;;;;;-147.14;100.00;58812.66;4956925;28;45829;-63
2023/03/11 12:46:05;;;;;;;;;10.67;9.00;;;;;-147.14;100.00;58812.66;4953387;28;46341;-63
2023/03/11 12:48:36;;;;;;;;;10.67;8.67;;;;;-147.14;100.00;58812.66;4969633;28;45519;-63
2023/03/11 12:51:02;;;;;;;;;7.67;7.00;;;;;-147.14;100.00;58812.66;4970046;28;45628;-63
2023/03/11 12:53:47;;;;;;;;;8.67;8.67;;;;;-147.14;100.00;58812.66;4953292;28;45861;-62
2023/03/11 12:56:15;;;;;;;;;7.67;6.00;;;;;-147.14;100.00;58812.66;4955089;28;46249;-64
2023/03/11 12:59:02;;;;;;;;;6.33;6.33;;;;;-147.14;100.00;58812.66;4953400;28;45446;-64
2023/03/11 13:01:36;;;;;;;;;5.33;5.33;;;;;-147.14;100.00;58812.66;4952506;28;45535;-62
2023/03/11 13:04:20;;;;;;;;;7.67;7.67;;;;;-147.14;100.00;58812.66;4951254;28;45504;-64
2023/03/11 13:07:14;;;;;;;;;7.00;7.00;;;;;-147.14;100.00;58812.66;4954599;28;45386;-63
2023/03/11 13:09:39;;;;;;;;;6.33;6.33;;;;;-147.14;100.00;58812.66;4958672;28;45401;-64
2023/03/11 13:12:37;;;;;;;;;7.00;6.00;;;;;-147.14;100.00;58812.66;4949025;28;63425;-65
2023/03/11 13:15:28;;;;;;;;;7.67;6.00;;;;;-147.14;100.00;58812.66;4957478;28;45601;-64
2023/03/11 13:18:00;;;;;;;;;9.00;6.00;;;;;-147.14;100.00;58812.66;4951357;28;46549;-65
2023/03/11 13:20:38;;;;;;;;;7.33;7.33;;;;;-147.14;100.00;58812.66;4954780;28;45545;-65
2023/03/11 13:23:12;;;;;;;;;6.00;6.00;;;;;-147.14;100.00;58812.66;4955004;28;45627;-65
2023/03/11 13:25:41;;;;;;;;;7.33;6.00;;;;;-147.14;100.00;58812.66;4959302;28;45731;-65
2023/03/11 13:28:16;;;;;;;;;7.33;5.33;;;;;-147.14;100.00;58812.66;4971804;28;46153;-64
2023/03/11 13:30:50;;;;;;;;;7.00;7.00;;;;;-147.14;100.00;58812.66;4957192;28;45466;-64
2023/03/11 13:33:45;;;;;;;;;8.67;7.00;;;;;-147.14;100.00;58812.66;4950846;28;45494;-64
2023/03/11 13:36:21;;;;;;;;;7.00;7.00;;;;;-147.14;100.00;58812.66;4958921;28;45762;-63
2023/03/11 13:39:07;;;;;;;;;5.00;5.00;;;;;-147.14;100.00;58812.66;4960145;28;46197;-63
2023/03/11 13:41:35;;;;;;;;;10.33;6.00;;;;;-147.14;100.00;58812.66;4950818;28;45363;-63
2023/03/11 13:44:15;;;;;;;;;5.00;5.00;;;;;-147.14;100.00;58812.66;4961114;28;45552;-64
2023/03/11 13:46:43;;;;;;;;;6.33;5.67;;;;;-147.14;100.00;58812.66;4959349;28;45410;-64
2023/03/11 13:49:22;;;;;;;;;7.33;6.00;;;;;-147.14;100.00;58812.66;4959193;28;46054;-63
2023/03/11 13:51:49;;;;;;;;;5.00;5.00;;;;;-147.14;100.00;58812.66;4946501;28;45389;-63
2023/03/11 13:54:18;;;;;;;;;5.00;5.00;;;;;-147.14;100.00;58812.66;4951835;28;45789;-64
2023/03/11 13:56:48;;;;;;;;;4.00;4.00;;;;;-147.14;100.00;58812.66;4956719;28;45570;-63
2023/03/11 13:59:16;;;;;;;;;5.00;4.33;;;;;-147.14;100.00;58812.66;4958834;28;46060;-63
2023/03/11 14:02:18;;;;;;;;;6.67;6.67;;;;;-147.14;100.00;58812.66;4950149;28;46641;-65
2023/03/11 14:04:58;;;;;;;;;7.67;7.67;;;;;-147.14;100.00;58812.66;4956828;28;45446;-64
2023/03/11 14:07:30;;;;;;;;;6.33;6.33;;;;;-147.14;100.00;58812.66;4953050;28;45719;-65
2023/03/11 14:10:15;;;;;;;;;9.67;8.00;;;;;-147.14;100.00;58812.66;4950998;28;45557;-61
2023/03/11 14:12:41;;;;;;;;;10.33;7.67;;;;;-147.14;100.00;58812.66;4950655;28;45706;-58
2023/03/11 14:15:08;;;;;;;;;5.67;5.67;;;;;-147.14;100.00;58812.66;4958724;28;45433;-57
2023/03/11 14:17:33;;;;;;;;;6.00;5.67;;;;;-147.14;100.00;58812.66;4959041;28;45633;-61
2023/03/11 14:20:13;;;;;;;;;6.00;6.00;;;;;-147.14;100.00;58812.66;4957544;28;46952;-62
2023/03/11 14:22:49;;;;;;;;;8.67;8.00;;;;;-147.14;100.00;58812.66;4962908;28;45521;-61
2023/03/11 14:25:26;;;;;;;;;7.67;7.67;;;;;-147.14;100.00;58812.66;4960077;28;45481;-68
2023/03/11 14:27:57;;;;;;;;;10.00;7.00;;;;;-147.14;100.00;58812.66;4972014;28;45554;-67
2023/03/11 14:30:25;;;;;;;;;11.00;9.33;;;;;-147.14;100.00;58812.66;4968751;28;45364;-67
2023/03/11 14:32:59;;;;;;;;;5.67;5.00;;;;;-147.14;100.00;58812.66;4958112;28;45619;-67
2023/03/11 14:35:25;;;;;;;;;9.33;8.00;;;;;-147.14;100.00;58812.66;4955218;28;45431;-68
2023/03/11 14:37:51;;;;;;;;;8.67;8.67;;;;;-147.14;100.00;58812.66;4947898;28;67679;-67
2023/03/11 14:40:25;;;;;;;;;6.00;6.00;;;;;-147.14;100.00;58812.66;4938251;28;46468;-67
2023/03/11 14:42:53;;;;;;;;;9.33;8.00;;;;;-147.14;100.00;58812.66;4954650;28;45299;-68
2023/03/11 14:45:21;;;;;;;;;9.33;8.00;;;;;-147.14;100.00;58812.66;4958757;28;45611;-67
2023/03/11 14:48:14;;;;;;;;;5.00;5.00;;;;;-147.14;100.00;58812.66;4959417;28;45714;-67
2023/03/11 14:50:41;;;;;;;;;7.67;7.67;;;;;-147.14;100.00;58812.66;4957327;28;45984;-67
2023/03/11 14:53:17;;;;;;;;;8.00;6.33;;;;;-147.14;100.00;58812.66;4954829;28;45368;-67
2023/03/11 14:55:58;;;;;;;;;9.33;7.33;;;;;-147.14;100.00;58812.66;4959519;28;45463;-67
2023/03/11 14:58:33;;;;;;;;;7.67;7.33;;;;;-147.14;100.00;58812.66;4956210;28;45498;-66
2023/03/11 15:01:03;;;;;;;;;7.67;6.00;;;;;-147.14;100.00;58812.66;4955506;28;45566;-66
2023/03/11 15:03:35;;;;;;;;;6.67;6.67;;;;;-147.14;100.00;58812.66;4954471;28;45467;-66
2023/03/11 15:06:16;;;;;;;;;8.00;8.00;;;;;-147.14;100.00;58812.66;4953381;28;45410;-66
2023/03/11 15:08:56;;;;;;;;;7.00;7.00;;;;;-147.14;100.00;58812.66;4956647;28;45761;-67
2023/03/11 15:11:24;;;;;;;;;9.33;8.00;;;;;-147.14;100.00;58812.66;4952401;28;45566;-66
2023/03/11 15:13:50;;;;;;;;;8.00;7.00;;;;;-147.14;100.00;58812.66;4954997;28;45519;-66
2023/03/11 15:16:22;;;;;;;;;10.33;9.33;;;;;-147.14;100.00;58812.66;4948207;28;45428;-66
2023/03/11 15:18:48;;;;;;;;;8.67;8.33;;;;;-147.14;100.00;58812.66;4961595;28;45377;-66
2023/03/11 15:21:18;;;;;;;;;8.67;8.33;;;;;-147.14;100.00;58812.66;4956967;28;49803;-66
2023/03/11 15:24:05;;;;;;;;;6.00;6.00;;;;;-147.14;100.00;58812.66;4955207;28;45362;-66
2023/03/11 15:26:37;;;;;;;;;6.33;6.33;;;;;-147.14;100.00;58812.66;4961674;28;45526;-66
2023/03/11 15:29:15;;;;;;;;;6.00;5.00;;;;;-147.14;100.00;58812.66;4960333;28;45564;-66
2023/03/11 15:31:45;;;;;;;;;8.67;8.67;;;;;-147.14;100.00;58812.66;4950829;28;64403;-67
2023/03/11 15:34:16;;;;;;;;;8.00;7.00;;;;;-147.14;100.00;58812.66;4947107;28;45372;-68
2023/03/11 15:36:47;;;;;;;;;8.67;7.67;;;;;-147.14;100.00;58812.66;4962487;28;45227;-68
2023/03/11 15:39:20;;;;;;;;;9.33;8.00;;;;;-147.14;100.00;58812.66;4951473;28;45474;-68
2023/03/11 15:42:05;;;;;;;;;9.33;8.00;;;;;-147.14;100.00;58812.66;4957658;28;45439;-67
2023/03/11 15:44:39;;;;;;;;;11.00;7.00;;;;;-147.14;100.00;58812.66;4953810;28;45467;-68
2023/03/11 15:47:05;;;;;;;;;12.67;7.67;;;;;-147.14;100.00;58812.66;4949430;28;45682;-67
2023/03/11 15:49:30;;;;;;;;;7.33;7.00;;;;;-147.14;100.00;58812.66;4958185;28;45384;-67
2023/03/11 15:52:00;;;;;;;;;12.00;10.33;;;;;-147.14;100.00;58812.66;4948744;28;69951;-69
2023/03/11 15:54:25;;;;;;;;;8.33;8.33;;;;;-147.14;100.00;58812.66;4939894;28;45739;-69
2023/03/11 15:56:51;;;;;;;;;7.00;6.33;;;;;-147.14;100.00;58812.66;4957915;28;45687;-68
2023/03/11 15:59:17;;;;;;;;;9.00;8.67;;;;;-147.14;100.00;58812.66;4958358;28;45545;-69
2023/03/11 16:01:42;;;;;;;;;8.67;8.67;;;;;-147.14;100.00;58812.66;4953633;28;45488;-68
2023/03/11 16:04:16;;;;;;;;;8.00;4.67;;;;;-147.14;100.00;58812.66;4957277;28;45456;-68
2023/03/11 16:06:42;;;;;;;;;7.67;7.33;;;;;-147.14;100.00;58812.66;4939257;28;45548;-68
2023/03/11 16:09:07;;;;;;;;;7.33;6.33;;;;;-147.14;100.00;58812.66;4958958;28;45658;-68
2023/03/11 16:11:33;;;;;;;;;6.00;4.00;;;;;-147.14;100.00;58812.66;4958728;28;45355;-67
2023/03/11 16:13:59;;;;;;;;;7.00;6.67;;;;;-147.14;100.00;58812.66;4955909;28;58070;-67
2023/03/11 16:16:24;;;;;;;;;7.00;6.00;;;;;-147.14;100.00;58812.66;4961719;28;46111;-67
2023/03/11 16:18:49;;;;;;;;;10.00;9.00;;;;;-147.14;100.00;58812.66;4946303;28;45410;-65
2023/03/11 16:21:17;;;;;;;;;7.00;7.00;;;;;-147.14;100.00;58812.66;4956202;28;50550;-68
2023/03/11 16:23:43;;;;;;;;;8.67;8.33;;;;;-147.14;100.00;58812.66;4940929;28;45541;-62
2023/03/11 16:26:10;;;;;;;;;9.33;7.00;;;;;-147.14;100.00;58812.66;4950876;28;45476;-59
2023/03/11 16:28:36;;;;;;;;;6.33;6.33;;;;;-147.14;100.00;58812.66;4962922;28;46704;-64
2023/03/11 16:31:01;;;;;;;;;6.00;6.00;;;;;-147.14;100.00;58812.66;4954638;28;47218;-64
2023/03/11 16:33:27;;;;;;;;;7.33;7.00;;;;;-147.14;100.00;58812.66;4958106;28;45334;-65
2023/03/11 16:35:52;;;;;;;;;6.67;5.00;;;;;-147.14;100.00;58812.66;4955738;28;45710;-65
2023/03/11 16:38:19;;;;;;;;;9.00;8.00;;;;;-147.14;100.00;58812.66;4956215;28;69931;-64
2023/03/11 16:40:44;;;;;;;;;7.33;5.00;;;;;-147.14;100.00;58812.66;4967203;28;47191;-63
2023/03/11 16:43:12;;;;;;;;;6.67;6.67;;;;;-147.14;100.00;58812.66;4936145;28;45548;-65
2023/03/11 16:45:38;;;;;;;;;7.00;5.00;;;;;-147.14;100.00;58812.66;4960264;28;45542;-65
2023/03/11 16:48:04;;;;;;;;;5.00;5.00;;;;;-147.14;100.00;58812.66;4940483;28;45589;-64
2023/03/11 16:50:30;;;;;;;;;7.00;5.67;;;;;-147.14;100.00;58812.66;4960922;28;45461;-65
2023/03/11 16:52:56;;;;;;;;;7.67;6.33;;;;;-147.14;100.00;58812.66;4962194;28;46107;-65
2023/03/11 16:55:22;;;;;;;;;9.00;7.33;;;;;-147.14;100.00;58812.66;4959269;28;45475;-64
2023/03/11 16:57:48;;;;;;;;;7.00;5.33;;;;;-147.14;100.00;58812.66;4955582;28;45488;-65
2023/03/11 17:00:14;;;;;;;;;4.00;4.00;;;;;-147.14;100.00;58812.66;4940146;28;46821;-63
2023/03/11 17:02:39;;;;;;;;;9.00;6.00;;;;;-147.14;100.00;58812.66;4963675;28;45512;-65
2023/03/11 17:05:06;;;;;;;;;7.00;5.33;;;;;-147.14;100.00;58812.66;4939027;28;45438;-65
2023/03/11 17:07:32;;;;;;;;;4.00;4.00;;;;;-147.14;100.00;58812.66;4958958;28;45646;-64
2023/03/11 17:09:57;;;;;;;;;5.67;4.67;;;;;-147.14;100.00;58812.66;4956071;28;70577;-64
2023/03/11 17:12:24;;;;;;;;;4.00;4.00;;;;;-147.14;100.00;58812.66;4954689;28;61239;-64
2023/03/11 17:14:50;;;;;;;;;8.00;8.00;;;;;-147.14;100.00;58812.66;4957976;28;45394;-64
2023/03/11 17:17:15;;;;;;;;;5.67;5.67;;;;;-147.14;100.00;58812.66;4948404;28;45281;-64
2023/03/11 17:19:41;;;;;;;;;6.00;6.00;;;;;-147.14;100.00;58812.66;4957349;28;67351;-64
2023/03/11 17:22:06;;;;;;;;;7.67;6.00;;;;;-147.14;100.00;58812.66;4950942;28;69891;-63
2023/03/11 17:24:31;;;;;;;;;6.00;5.00;;;;;-147.14;100.00;58812.66;4958001;28;60704;-63